RJCO(METAR)
04/24 09:00
METAR RJCO 240000Z 13016KT 9999 FEW150 SCT200 14/07 Q1012 RMK 1AC150
3CI200 A2989=
戻る
トップページへ戻る
IMOC Co,.Ltd.